sensor_id;sensor_type;location;lat;lon;timestamp;P1;durP1;ratioP1;P2;durP2;ratioP2
37945;SDS011;23769;52.478;13.448;2022-09-09T00:01:59;14.23;;;11.43;;
37945;SDS011;23769;52.478;13.448;2022-09-09T00:04:28;12.57;;;10.68;;
37945;SDS011;23769;52.478;13.448;2022-09-09T00:06:58;12.60;;;10.32;;
37945;SDS011;23769;52.478;13.448;2022-09-09T00:09:28;11.60;;;10.18;;
37945;SDS011;23769;52.478;13.448;2022-09-09T00:11:58;13.48;;;10.73;;
37945;SDS011;23769;52.478;13.448;2022-09-09T00:14:31;12.95;;;9.75;;
37945;SDS011;23769;52.478;13.448;2022-09-09T00:17:02;11.35;;;10.18;;
37945;SDS011;23769;52.478;13.448;2022-09-09T00:19:32;13.15;;;11.00;;
37945;SDS011;23769;52.478;13.448;2022-09-09T00:22:06;14.57;;;12.45;;
37945;SDS011;23769;52.478;13.448;2022-09-09T00:24:41;15.40;;;10.57;;
37945;SDS011;23769;52.478;13.448;2022-09-09T00:27:13;11.07;;;9.98;;
37945;SDS011;23769;52.478;13.448;2022-09-09T00:29:42;12.35;;;11.05;;
37945;SDS011;23769;52.478;13.448;2022-09-09T00:32:13;10.27;;;9.20;;
37945;SDS011;23769;52.478;13.448;2022-09-09T00:34:44;14.60;;;11.75;;
37945;SDS011;23769;52.478;13.448;2022-09-09T00:37:12;12.35;;;10.57;;
37945;SDS011;23769;52.478;13.448;2022-09-09T00:39:40;12.45;;;10.63;;
37945;SDS011;23769;52.478;13.448;2022-09-09T00:42:12;11.40;;;10.20;;
37945;SDS011;23769;52.478;13.448;2022-09-09T00:44:44;10.77;;;9.43;;
37945;SDS011;23769;52.478;13.448;2022-09-09T00:47:20;11.20;;;9.65;;
37945;SDS011;23769;52.478;13.448;2022-09-09T00:49:56;11.80;;;9.23;;
37945;SDS011;23769;52.478;13.448;2022-09-09T00:52:30;15.35;;;10.50;;
37945;SDS011;23769;52.478;13.448;2022-09-09T00:55:02;13.38;;;11.27;;
37945;SDS011;23769;52.478;13.448;2022-09-09T00:57:31;14.70;;;11.50;;
37945;SDS011;23769;52.478;13.448;2022-09-09T01:00:15;10.63;;;9.18;;
37945;SDS011;23769;52.478;13.448;2022-09-09T01:02:46;14.05;;;11.18;;
37945;SDS011;23769;52.478;13.448;2022-09-09T01:05:18;13.60;;;10.65;;
37945;SDS011;23769;52.478;13.448;2022-09-09T01:07:47;14.68;;;11.52;;
37945;SDS011;23769;52.478;13.448;2022-09-09T01:10:21;11.60;;;10.35;;
37945;SDS011;23769;52.478;13.448;2022-09-09T01:12:51;12.80;;;9.93;;
37945;SDS011;23769;52.478;13.448;2022-09-09T01:15:20;12.00;;;8.98;;
37945;SDS011;23769;52.478;13.448;2022-09-09T01:17:52;10.10;;;8.23;;
37945;SDS011;23769;52.478;13.448;2022-09-09T01:20:21;11.15;;;9.95;;
37945;SDS011;23769;52.478;13.448;2022-09-09T01:22:56;11.00;;;9.35;;
37945;SDS011;23769;52.478;13.448;2022-09-09T01:25:28;10.60;;;9.50;;
37945;SDS011;23769;52.478;13.448;2022-09-09T01:27:58;12.37;;;10.33;;
37945;SDS011;23769;52.478;13.448;2022-09-09T01:30:26;11.27;;;9.30;;
37945;SDS011;23769;52.478;13.448;2022-09-09T01:32:54;9.77;;;8.55;;
37945;SDS011;23769;52.478;13.448;2022-09-09T01:35:37;10.88;;;8.27;;
37945;SDS011;23769;52.478;13.448;2022-09-09T01:38:06;13.93;;;10.80;;
37945;SDS011;23769;52.478;13.448;2022-09-09T01:40:33;15.05;;;12.55;;
37945;SDS011;23769;52.478;13.448;2022-09-09T01:43:02;13.23;;;11.07;;
37945;SDS011;23769;52.478;13.448;2022-09-09T01:45:29;12.75;;;9.93;;
37945;SDS011;23769;52.478;13.448;2022-09-09T01:47:57;16.30;;;12.90;;
37945;SDS011;23769;52.478;13.448;2022-09-09T01:50:25;17.52;;;12.88;;
37945;SDS011;23769;52.478;13.448;2022-09-09T01:52:54;17.85;;;13.55;;
37945;SDS011;23769;52.478;13.448;2022-09-09T01:55:23;23.05;;;16.95;;
37945;SDS011;23769;52.478;13.448;2022-09-09T01:57:54;23.83;;;17.95;;
37945;SDS011;23769;52.478;13.448;2022-09-09T02:00:24;21.83;;;14.68;;
37945;SDS011;23769;52.478;13.448;2022-09-09T02:02:54;17.77;;;13.95;;
37945;SDS011;23769;52.478;13.448;2022-09-09T02:05:26;21.30;;;13.52;;
37945;SDS011;23769;52.478;13.448;2022-09-09T02:07:56;19.52;;;14.13;;
37945;SDS011;23769;52.478;13.448;2022-09-09T02:10:24;17.75;;;13.18;;
37945;SDS011;23769;52.478;13.448;2022-09-09T02:12:55;20.73;;;15.80;;
37945;SDS011;23769;52.478;13.448;2022-09-09T02:15:26;19.35;;;15.15;;
37945;SDS011;23769;52.478;13.448;2022-09-09T02:17:55;24.85;;;16.98;;
37945;SDS011;23769;52.478;13.448;2022-09-09T02:20:24;13.50;;;10.38;;
37945;SDS011;23769;52.478;13.448;2022-09-09T02:22:51;13.57;;;10.60;;
37945;SDS011;23769;52.478;13.448;2022-09-09T02:25:20;12.23;;;10.13;;
37945;SDS011;23769;52.478;13.448;2022-09-09T02:27:48;17.08;;;12.85;;
37945;SDS011;23769;52.478;13.448;2022-09-09T02:30:16;12.07;;;9.77;;
37945;SDS011;23769;52.478;13.448;2022-09-09T02:32:46;12.45;;;10.30;;
37945;SDS011;23769;52.478;13.448;2022-09-09T02:35:14;15.68;;;12.43;;
37945;SDS011;23769;52.478;13.448;2022-09-09T02:37:42;13.65;;;10.75;;
37945;SDS011;23769;52.478;13.448;2022-09-09T02:40:11;11.05;;;9.45;;
37945;SDS011;23769;52.478;13.448;2022-09-09T02:42:39;17.95;;;12.10;;
37945;SDS011;23769;52.478;13.448;2022-09-09T02:45:07;10.65;;;8.85;;
37945;SDS011;23769;52.478;13.448;2022-09-09T02:47:35;14.43;;;9.23;;
37945;SDS011;23769;52.478;13.448;2022-09-09T02:50:06;12.80;;;10.15;;
37945;SDS011;23769;52.478;13.448;2022-09-09T02:52:37;10.07;;;8.23;;
37945;SDS011;23769;52.478;13.448;2022-09-09T02:55:07;10.70;;;8.80;;
37945;SDS011;23769;52.478;13.448;2022-09-09T02:57:36;11.27;;;8.32;;
37945;SDS011;23769;52.478;13.448;2022-09-09T03:00:06;11.63;;;9.68;;
37945;SDS011;23769;52.478;13.448;2022-09-09T03:02:33;12.38;;;10.15;;
37945;SDS011;23769;52.478;13.448;2022-09-09T03:05:00;9.70;;;8.52;;
37945;SDS011;23769;52.478;13.448;2022-09-09T03:07:29;12.68;;;9.40;;
37945;SDS011;23769;52.478;13.448;2022-09-09T03:09:56;15.73;;;11.70;;
37945;SDS011;23769;52.478;13.448;2022-09-09T03:12:23;12.50;;;10.70;;
37945;SDS011;23769;52.478;13.448;2022-09-09T03:14:50;11.43;;;8.85;;
37945;SDS011;23769;52.478;13.448;2022-09-09T03:17:17;10.68;;;9.05;;
37945;SDS011;23769;52.478;13.448;2022-09-09T03:19:44;11.68;;;9.18;;
37945;SDS011;23769;52.478;13.448;2022-09-09T03:22:14;11.88;;;9.48;;
37945;SDS011;23769;52.478;13.448;2022-09-09T03:24:42;15.65;;;10.18;;
37945;SDS011;23769;52.478;13.448;2022-09-09T03:27:11;12.80;;;9.95;;
37945;SDS011;23769;52.478;13.448;2022-09-09T03:29:39;13.48;;;10.38;;
37945;SDS011;23769;52.478;13.448;2022-09-09T03:32:06;10.85;;;9.00;;
37945;SDS011;23769;52.478;13.448;2022-09-09T03:34:35;10.90;;;8.65;;
37945;SDS011;23769;52.478;13.448;2022-09-09T03:37:05;10.63;;;9.15;;
37945;SDS011;23769;52.478;13.448;2022-09-09T03:39:32;11.57;;;8.98;;
37945;SDS011;23769;52.478;13.448;2022-09-09T03:42:01;10.45;;;8.50;;
37945;SDS011;23769;52.478;13.448;2022-09-09T03:44:29;9.57;;;8.27;;
37945;SDS011;23769;52.478;13.448;2022-09-09T03:46:56;11.68;;;8.85;;
37945;SDS011;23769;52.478;13.448;2022-09-09T03:49:25;13.63;;;8.93;;
37945;SDS011;23769;52.478;13.448;2022-09-09T03:51:53;10.90;;;8.13;;
37945;SDS011;23769;52.478;13.448;2022-09-09T03:54:21;13.07;;;9.40;;
37945;SDS011;23769;52.478;13.448;2022-09-09T03:56:48;8.05;;;7.03;;
37945;SDS011;23769;52.478;13.448;2022-09-09T03:59:17;9.02;;;7.55;;
37945;SDS011;23769;52.478;13.448;2022-09-09T04:01:45;10.95;;;8.73;;
37945;SDS011;23769;52.478;13.448;2022-09-09T04:04:13;10.57;;;8.45;;
37945;SDS011;23769;52.478;13.448;2022-09-09T04:06:40;9.43;;;7.47;;
37945;SDS011;23769;52.478;13.448;2022-09-09T04:09:07;10.77;;;8.48;;
37945;SDS011;23769;52.478;13.448;2022-09-09T04:11:34;12.85;;;10.32;;
37945;SDS011;23769;52.478;13.448;2022-09-09T04:14:02;15.48;;;12.38;;
37945;SDS011;23769;52.478;13.448;2022-09-09T04:16:32;11.82;;;9.13;;
37945;SDS011;23769;52.478;13.448;2022-09-09T04:19:00;14.63;;;11.13;;
37945;SDS011;23769;52.478;13.448;2022-09-09T04:21:29;13.63;;;10.60;;
37945;SDS011;23769;52.478;13.448;2022-09-09T04:23:56;10.65;;;8.00;;
37945;SDS011;23769;52.478;13.448;2022-09-09T04:26:23;9.60;;;7.43;;
37945;SDS011;23769;52.478;13.448;2022-09-09T04:28:50;10.68;;;8.15;;
37945;SDS011;23769;52.478;13.448;2022-09-09T04:31:18;10.25;;;8.05;;
37945;SDS011;23769;52.478;13.448;2022-09-09T04:33:49;15.07;;;11.48;;
37945;SDS011;23769;52.478;13.448;2022-09-09T04:36:16;10.18;;;8.60;;
37945;SDS011;23769;52.478;13.448;2022-09-09T04:38:44;15.38;;;10.85;;
37945;SDS011;23769;52.478;13.448;2022-09-09T04:41:11;12.93;;;10.15;;
37945;SDS011;23769;52.478;13.448;2022-09-09T04:43:38;13.95;;;10.13;;
37945;SDS011;23769;52.478;13.448;2022-09-09T04:46:06;9.73;;;7.38;;
37945;SDS011;23769;52.478;13.448;2022-09-09T04:48:33;10.48;;;7.38;;
37945;SDS011;23769;52.478;13.448;2022-09-09T04:51:02;13.90;;;8.45;;
37945;SDS011;23769;52.478;13.448;2022-09-09T04:53:30;12.27;;;9.63;;
37945;SDS011;23769;52.478;13.448;2022-09-09T04:56:02;10.35;;;8.65;;
37945;SDS011;23769;52.478;13.448;2022-09-09T04:58:29;10.77;;;8.25;;
37945;SDS011;23769;52.478;13.448;2022-09-09T05:01:02;11.05;;;7.50;;
37945;SDS011;23769;52.478;13.448;2022-09-09T05:03:29;9.63;;;7.32;;
37945;SDS011;23769;52.478;13.448;2022-09-09T05:06:02;11.10;;;9.07;;
37945;SDS011;23769;52.478;13.448;2022-09-09T05:08:30;9.73;;;6.68;;
37945;SDS011;23769;52.478;13.448;2022-09-09T05:10:57;10.23;;;7.03;;
37945;SDS011;23769;52.478;13.448;2022-09-09T05:13:25;9.23;;;7.10;;
37945;SDS011;23769;52.478;13.448;2022-09-09T05:15:52;9.60;;;6.53;;
37945;SDS011;23769;52.478;13.448;2022-09-09T05:18:20;8.35;;;6.43;;
37945;SDS011;23769;52.478;13.448;2022-09-09T05:20:47;8.00;;;6.05;;
37945;SDS011;23769;52.478;13.448;2022-09-09T05:23:15;10.02;;;5.93;;
37945;SDS011;23769;52.478;13.448;2022-09-09T05:25:42;7.40;;;5.30;;
37945;SDS011;23769;52.478;13.448;2022-09-09T05:28:11;7.80;;;5.00;;
37945;SDS011;23769;52.478;13.448;2022-09-09T05:30:38;6.38;;;4.90;;
37945;SDS011;23769;52.478;13.448;2022-09-09T05:33:06;6.20;;;4.68;;
37945;SDS011;23769;52.478;13.448;2022-09-09T05:35:34;4.70;;;3.92;;
37945;SDS011;23769;52.478;13.448;2022-09-09T05:38:03;5.85;;;4.45;;
37945;SDS011;23769;52.478;13.448;2022-09-09T05:40:31;8.13;;;4.95;;
37945;SDS011;23769;52.478;13.448;2022-09-09T05:42:59;6.45;;;3.65;;
37945;SDS011;23769;52.478;13.448;2022-09-09T05:45:27;5.25;;;3.00;;
37945;SDS011;23769;52.478;13.448;2022-09-09T05:47:54;5.55;;;2.97;;
37945;SDS011;23769;52.478;13.448;2022-09-09T05:50:22;5.47;;;2.70;;
37945;SDS011;23769;52.478;13.448;2022-09-09T05:52:49;6.72;;;2.88;;
37945;SDS011;23769;52.478;13.448;2022-09-09T05:55:16;6.15;;;2.75;;
37945;SDS011;23769;52.478;13.448;2022-09-09T05:57:49;3.88;;;2.40;;
37945;SDS011;23769;52.478;13.448;2022-09-09T06:00:17;4.75;;;2.20;;
37945;SDS011;23769;52.478;13.448;2022-09-09T06:02:49;5.50;;;2.55;;
37945;SDS011;23769;52.478;13.448;2022-09-09T06:05:17;11.23;;;2.90;;
37945;SDS011;23769;52.478;13.448;2022-09-09T06:07:44;5.38;;;2.58;;
37945;SDS011;23769;52.478;13.448;2022-09-09T06:10:12;5.53;;;2.53;;
37945;SDS011;23769;52.478;13.448;2022-09-09T06:12:40;5.22;;;2.05;;
37945;SDS011;23769;52.478;13.448;2022-09-09T06:15:09;5.47;;;1.83;;
37945;SDS011;23769;52.478;13.448;2022-09-09T06:17:36;3.50;;;1.60;;
37945;SDS011;23769;52.478;13.448;2022-09-09T06:20:04;6.72;;;1.83;;
37945;SDS011;23769;52.478;13.448;2022-09-09T06:22:31;3.55;;;1.92;;
37945;SDS011;23769;52.478;13.448;2022-09-09T06:24:58;2.03;;;1.80;;
37945;SDS011;23769;52.478;13.448;2022-09-09T06:27:26;4.13;;;1.45;;
37945;SDS011;23769;52.478;13.448;2022-09-09T06:29:54;4.53;;;1.73;;
37945;SDS011;23769;52.478;13.448;2022-09-09T06:32:23;3.90;;;1.52;;
37945;SDS011;23769;52.478;13.448;2022-09-09T06:34:53;5.55;;;1.98;;
37945;SDS011;23769;52.478;13.448;2022-09-09T06:37:20;2.55;;;1.40;;
37945;SDS011;23769;52.478;13.448;2022-09-09T06:39:49;4.95;;;1.83;;
37945;SDS011;23769;52.478;13.448;2022-09-09T06:42:17;5.47;;;2.25;;
37945;SDS011;23769;52.478;13.448;2022-09-09T06:44:44;2.25;;;1.77;;
37945;SDS011;23769;52.478;13.448;2022-09-09T06:47:12;3.35;;;1.40;;
37945;SDS011;23769;52.478;13.448;2022-09-09T06:49:40;3.83;;;1.58;;
37945;SDS011;23769;52.478;13.448;2022-09-09T06:52:08;4.10;;;1.70;;
37945;SDS011;23769;52.478;13.448;2022-09-09T06:54:35;4.63;;;2.10;;
37945;SDS011;23769;52.478;13.448;2022-09-09T06:57:03;6.80;;;2.13;;
37945;SDS011;23769;52.478;13.448;2022-09-09T06:59:32;4.43;;;1.85;;
37945;SDS011;23769;52.478;13.448;2022-09-09T07:01:59;2.25;;;1.50;;
37945;SDS011;23769;52.478;13.448;2022-09-09T07:04:26;5.15;;;1.73;;
37945;SDS011;23769;52.478;13.448;2022-09-09T07:06:54;4.60;;;1.90;;
37945;SDS011;23769;52.478;13.448;2022-09-09T07:09:21;4.65;;;1.60;;
37945;SDS011;23769;52.478;13.448;2022-09-09T07:11:50;3.83;;;1.50;;
37945;SDS011;23769;52.478;13.448;2022-09-09T07:14:18;4.35;;;1.98;;
37945;SDS011;23769;52.478;13.448;2022-09-09T07:16:46;3.70;;;1.73;;
37945;SDS011;23769;52.478;13.448;2022-09-09T07:19:13;3.67;;;1.67;;
37945;SDS011;23769;52.478;13.448;2022-09-09T07:21:41;3.22;;;1.70;;
37945;SDS011;23769;52.478;13.448;2022-09-09T07:24:10;7.10;;;3.90;;
37945;SDS011;23769;52.478;13.448;2022-09-09T07:26:38;3.22;;;1.70;;
37945;SDS011;23769;52.478;13.448;2022-09-09T07:29:05;7.00;;;1.60;;
37945;SDS011;23769;52.478;13.448;2022-09-09T07:31:33;5.00;;;1.80;;
37945;SDS011;23769;52.478;13.448;2022-09-09T07:34:02;4.65;;;2.05;;
37945;SDS011;23769;52.478;13.448;2022-09-09T07:36:29;5.82;;;2.28;;
37945;SDS011;23769;52.478;13.448;2022-09-09T07:38:58;3.75;;;1.55;;
37945;SDS011;23769;52.478;13.448;2022-09-09T07:41:27;3.60;;;1.67;;
37945;SDS011;23769;52.478;13.448;2022-09-09T07:43:55;4.28;;;2.08;;
37945;SDS011;23769;52.478;13.448;2022-09-09T07:46:24;3.13;;;1.60;;
37945;SDS011;23769;52.478;13.448;2022-09-09T07:48:52;8.27;;;3.10;;
37945;SDS011;23769;52.478;13.448;2022-09-09T07:51:20;4.82;;;2.13;;
37945;SDS011;23769;52.478;13.448;2022-09-09T07:53:48;4.30;;;1.50;;
37945;SDS011;23769;52.478;13.448;2022-09-09T07:56:18;7.03;;;2.08;;
37945;SDS011;23769;52.478;13.448;2022-09-09T07:58:49;7.18;;;2.15;;
37945;SDS011;23769;52.478;13.448;2022-09-09T08:01:17;4.05;;;2.65;;
37945;SDS011;23769;52.478;13.448;2022-09-09T08:03:46;7.25;;;2.50;;
37945;SDS011;23769;52.478;13.448;2022-09-09T08:06:13;3.83;;;1.50;;
37945;SDS011;23769;52.478;13.448;2022-09-09T08:08:40;4.00;;;1.73;;
37945;SDS011;23769;52.478;13.448;2022-09-09T08:11:09;6.95;;;3.25;;
37945;SDS011;23769;52.478;13.448;2022-09-09T08:13:36;4.50;;;2.83;;
37945;SDS011;23769;52.478;13.448;2022-09-09T08:16:06;4.18;;;2.20;;
37945;SDS011;23769;52.478;13.448;2022-09-09T08:18:34;6.25;;;2.28;;
37945;SDS011;23769;52.478;13.448;2022-09-09T08:21:04;6.10;;;2.83;;
37945;SDS011;23769;52.478;13.448;2022-09-09T08:23:31;5.03;;;1.70;;
37945;SDS011;23769;52.478;13.448;2022-09-09T08:26:02;7.63;;;3.80;;
37945;SDS011;23769;52.478;13.448;2022-09-09T08:28:29;4.03;;;1.70;;
37945;SDS011;23769;52.478;13.448;2022-09-09T08:31:04;4.00;;;2.17;;
37945;SDS011;23769;52.478;13.448;2022-09-09T08:33:33;5.25;;;2.20;;
37945;SDS011;23769;52.478;13.448;2022-09-09T08:36:02;3.42;;;1.70;;
37945;SDS011;23769;52.478;13.448;2022-09-09T08:38:29;5.38;;;2.30;;
37945;SDS011;23769;52.478;13.448;2022-09-09T08:40:58;5.80;;;1.85;;
37945;SDS011;23769;52.478;13.448;2022-09-09T08:43:26;3.10;;;1.80;;
37945;SDS011;23769;52.478;13.448;2022-09-09T08:45:55;4.32;;;1.80;;
37945;SDS011;23769;52.478;13.448;2022-09-09T08:48:30;6.15;;;2.03;;
37945;SDS011;23769;52.478;13.448;2022-09-09T08:51:04;4.05;;;1.90;;
37945;SDS011;23769;52.478;13.448;2022-09-09T08:53:34;7.40;;;3.17;;
37945;SDS011;23769;52.478;13.448;2022-09-09T08:56:06;4.00;;;1.80;;
37945;SDS011;23769;52.478;13.448;2022-09-09T08:58:39;6.32;;;2.55;;
37945;SDS011;23769;52.478;13.448;2022-09-09T09:01:17;7.22;;;2.40;;
37945;SDS011;23769;52.478;13.448;2022-09-09T09:03:52;5.93;;;1.73;;
37945;SDS011;23769;52.478;13.448;2022-09-09T09:06:26;4.47;;;1.77;;
37945;SDS011;23769;52.478;13.448;2022-09-09T09:09:01;6.47;;;2.33;;
37945;SDS011;23769;52.478;13.448;2022-09-09T09:11:34;7.22;;;2.13;;
37945;SDS011;23769;52.478;13.448;2022-09-09T09:14:01;4.72;;;1.80;;
37945;SDS011;23769;52.478;13.448;2022-09-09T09:16:30;5.07;;;1.75;;
37945;SDS011;23769;52.478;13.448;2022-09-09T09:19:00;2.88;;;1.67;;
37945;SDS011;23769;52.478;13.448;2022-09-09T09:21:32;6.68;;;1.73;;
37945;SDS011;23769;52.478;13.448;2022-09-09T09:24:01;3.75;;;1.55;;
37945;SDS011;23769;52.478;13.448;2022-09-09T09:26:30;3.53;;;1.73;;
37945;SDS011;23769;52.478;13.448;2022-09-09T09:28:58;4.22;;;1.80;;
37945;SDS011;23769;52.478;13.448;2022-09-09T09:31:25;4.40;;;1.65;;
37945;SDS011;23769;52.478;13.448;2022-09-09T09:33:53;5.28;;;1.75;;
37945;SDS011;23769;52.478;13.448;2022-09-09T09:36:21;5.88;;;2.10;;
37945;SDS011;23769;52.478;13.448;2022-09-09T09:38:56;4.13;;;1.40;;
37945;SDS011;23769;52.478;13.448;2022-09-09T09:41:31;3.85;;;1.52;;
37945;SDS011;23769;52.478;13.448;2022-09-09T09:43:59;4.72;;;1.80;;
37945;SDS011;23769;52.478;13.448;2022-09-09T09:46:26;4.60;;;1.83;;
37945;SDS011;23769;52.478;13.448;2022-09-09T09:48:58;3.67;;;1.63;;
37945;SDS011;23769;52.478;13.448;2022-09-09T09:51:25;4.63;;;1.50;;
37945;SDS011;23769;52.478;13.448;2022-09-09T09:53:54;5.40;;;1.65;;
37945;SDS011;23769;52.478;13.448;2022-09-09T09:56:30;2.53;;;1.40;;
37945;SDS011;23769;52.478;13.448;2022-09-09T09:58:58;4.07;;;2.03;;
37945;SDS011;23769;52.478;13.448;2022-09-09T10:01:26;4.95;;;1.55;;
37945;SDS011;23769;52.478;13.448;2022-09-09T10:03:57;3.78;;;1.30;;
37945;SDS011;23769;52.478;13.448;2022-09-09T10:06:30;4.82;;;2.17;;
37945;SDS011;23769;52.478;13.448;2022-09-09T10:08:59;4.15;;;1.77;;
37945;SDS011;23769;52.478;13.448;2022-09-09T10:11:35;6.72;;;2.65;;
37945;SDS011;23769;52.478;13.448;2022-09-09T10:14:05;4.95;;;2.13;;
37945;SDS011;23769;52.478;13.448;2022-09-09T10:16:39;4.15;;;1.70;;
37945;SDS011;23769;52.478;13.448;2022-09-09T10:19:09;6.38;;;2.22;;
37945;SDS011;23769;52.478;13.448;2022-09-09T10:21:48;3.97;;;1.60;;
37945;SDS011;23769;52.478;13.448;2022-09-09T10:24:27;4.00;;;1.92;;
37945;SDS011;23769;52.478;13.448;2022-09-09T10:26:59;3.75;;;1.40;;
37945;SDS011;23769;52.478;13.448;2022-09-09T10:29:32;3.50;;;1.20;;
37945;SDS011;23769;52.478;13.448;2022-09-09T10:32:07;4.15;;;2.28;;
37945;SDS011;23769;52.478;13.448;2022-09-09T10:34:42;5.10;;;1.77;;
37945;SDS011;23769;52.478;13.448;2022-09-09T10:37:16;8.65;;;2.28;;
37945;SDS011;23769;52.478;13.448;2022-09-09T10:39:48;4.25;;;1.90;;
37945;SDS011;23769;52.478;13.448;2022-09-09T10:42:17;5.65;;;1.40;;
37945;SDS011;23769;52.478;13.448;2022-09-09T10:44:49;5.70;;;1.98;;
37945;SDS011;23769;52.478;13.448;2022-09-09T10:47:32;4.30;;;1.70;;
37945;SDS011;23769;52.478;13.448;2022-09-09T10:52:48;6.35;;;1.75;;
37945;SDS011;23769;52.478;13.448;2022-09-09T10:55:23;4.13;;;1.63;;
37945;SDS011;23769;52.478;13.448;2022-09-09T10:57:52;5.38;;;1.77;;
37945;SDS011;23769;52.478;13.448;2022-09-09T11:00:21;6.90;;;2.88;;
37945;SDS011;23769;52.478;13.448;2022-09-09T11:02:50;4.60;;;1.88;;
37945;SDS011;23769;52.478;13.448;2022-09-09T11:05:19;4.05;;;1.80;;
37945;SDS011;23769;52.478;13.448;2022-09-09T11:07:47;2.97;;;1.75;;
37945;SDS011;23769;52.478;13.448;2022-09-09T11:10:18;2.25;;;1.30;;
37945;SDS011;23769;52.478;13.448;2022-09-09T11:12:50;3.95;;;2.28;;
37945;SDS011;23769;52.478;13.448;2022-09-09T11:15:20;6.70;;;2.10;;
37945;SDS011;23769;52.478;13.448;2022-09-09T11:17:48;4.53;;;1.30;;
37945;SDS011;23769;52.478;13.448;2022-09-09T11:20:16;6.00;;;2.03;;
37945;SDS011;23769;52.478;13.448;2022-09-09T11:22:44;5.30;;;1.67;;
37945;SDS011;23769;52.478;13.448;2022-09-09T11:25:14;12.15;;;3.60;;
37945;SDS011;23769;52.478;13.448;2022-09-09T11:27:44;11.77;;;3.67;;
37945;SDS011;23769;52.478;13.448;2022-09-09T11:30:19;25.35;;;6.30;;
37945;SDS011;23769;52.478;13.448;2022-09-09T11:32:59;4.63;;;2.08;;
37945;SDS011;23769;52.478;13.448;2022-09-09T11:35:31;3.83;;;1.50;;
37945;SDS011;23769;52.478;13.448;2022-09-09T11:40:45;3.38;;;1.42;;
37945;SDS011;23769;52.478;13.448;2022-09-09T11:43:13;2.90;;;1.20;;
37945;SDS011;23769;52.478;13.448;2022-09-09T11:45:49;3.10;;;1.30;;
37945;SDS011;23769;52.478;13.448;2022-09-09T11:48:25;4.28;;;1.73;;
37945;SDS011;23769;52.478;13.448;2022-09-09T11:50:57;5.28;;;2.03;;
37945;SDS011;23769;52.478;13.448;2022-09-09T11:53:25;6.18;;;2.53;;
37945;SDS011;23769;52.478;13.448;2022-09-09T11:56:02;6.60;;;3.10;;
37945;SDS011;23769;52.478;13.448;2022-09-09T11:58:32;8.07;;;2.88;;
37945;SDS011;23769;52.478;13.448;2022-09-09T12:01:02;3.38;;;1.75;;
37945;SDS011;23769;52.478;13.448;2022-09-09T12:03:40;2.47;;;1.55;;
37945;SDS011;23769;52.478;13.448;2022-09-09T12:06:09;4.43;;;1.60;;
37945;SDS011;23769;52.478;13.448;2022-09-09T12:08:39;6.70;;;1.55;;
37945;SDS011;23769;52.478;13.448;2022-09-09T12:11:08;6.15;;;1.52;;
37945;SDS011;23769;52.478;13.448;2022-09-09T12:13:36;3.85;;;1.30;;
37945;SDS011;23769;52.478;13.448;2022-09-09T12:16:04;5.03;;;1.83;;
37945;SDS011;23769;52.478;13.448;2022-09-09T12:18:32;4.97;;;1.27;;
37945;SDS011;23769;52.478;13.448;2022-09-09T12:21:02;2.67;;;1.40;;
37945;SDS011;23769;52.478;13.448;2022-09-09T12:23:32;3.65;;;1.70;;
37945;SDS011;23769;52.478;13.448;2022-09-09T12:26:03;4.20;;;1.73;;
37945;SDS011;23769;52.478;13.448;2022-09-09T12:28:39;5.28;;;2.47;;
37945;SDS011;23769;52.478;13.448;2022-09-09T12:31:12;1.73;;;1.25;;
37945;SDS011;23769;52.478;13.448;2022-09-09T12:33:43;3.70;;;1.02;;
37945;SDS011;23769;52.478;13.448;2022-09-09T12:36:13;12.70;;;10.35;;
37945;SDS011;23769;52.478;13.448;2022-09-09T12:38:41;2.10;;;1.30;;
37945;SDS011;23769;52.478;13.448;2022-09-09T12:41:16;5.93;;;1.30;;
37945;SDS011;23769;52.478;13.448;2022-09-09T12:43:45;4.10;;;1.88;;
37945;SDS011;23769;52.478;13.448;2022-09-09T12:46:16;2.72;;;1.55;;
37945;SDS011;23769;52.478;13.448;2022-09-09T12:48:46;4.85;;;1.55;;
37945;SDS011;23769;52.478;13.448;2022-09-09T12:51:17;3.45;;;1.10;;
37945;SDS011;23769;52.478;13.448;2022-09-09T12:53:45;3.92;;;1.65;;
37945;SDS011;23769;52.478;13.448;2022-09-09T12:56:18;6.03;;;3.97;;
37945;SDS011;23769;52.478;13.448;2022-09-09T12:58:46;4.55;;;1.27;;
37945;SDS011;23769;52.478;13.448;2022-09-09T13:01:20;4.85;;;2.15;;
37945;SDS011;23769;52.478;13.448;2022-09-09T13:03:48;6.50;;;2.00;;
37945;SDS011;23769;52.478;13.448;2022-09-09T13:06:18;4.10;;;2.65;;
37945;SDS011;23769;52.478;13.448;2022-09-09T13:11:15;3.97;;;1.73;;
37945;SDS011;23769;52.478;13.448;2022-09-09T13:13:43;4.00;;;1.20;;
37945;SDS011;23769;52.478;13.448;2022-09-09T13:16:21;4.60;;;1.52;;
37945;SDS011;23769;52.478;13.448;2022-09-09T13:18:50;4.47;;;2.40;;
37945;SDS011;23769;52.478;13.448;2022-09-09T13:21:17;6.13;;;4.30;;
37945;SDS011;23769;52.478;13.448;2022-09-09T13:23:48;5.30;;;3.10;;
37945;SDS011;23769;52.478;13.448;2022-09-09T13:26:20;2.95;;;1.15;;
37945;SDS011;23769;52.478;13.448;2022-09-09T13:28:48;3.00;;;1.20;;
37945;SDS011;23769;52.478;13.448;2022-09-09T13:31:19;2.55;;;1.10;;
37945;SDS011;23769;52.478;13.448;2022-09-09T13:33:48;4.65;;;3.05;;
37945;SDS011;23769;52.478;13.448;2022-09-09T13:36:16;5.22;;;2.00;;
37945;SDS011;23769;52.478;13.448;2022-09-09T13:38:55;3.75;;;1.80;;
37945;SDS011;23769;52.478;13.448;2022-09-09T13:41:25;5.00;;;1.90;;
37945;SDS011;23769;52.478;13.448;2022-09-09T13:43:52;4.78;;;2.42;;
37945;SDS011;23769;52.478;13.448;2022-09-09T13:46:24;7.47;;;3.60;;
37945;SDS011;23769;52.478;13.448;2022-09-09T13:48:57;4.50;;;1.70;;
37945;SDS011;23769;52.478;13.448;2022-09-09T13:51:33;3.58;;;1.75;;
37945;SDS011;23769;52.478;13.448;2022-09-09T13:54:02;4.00;;;2.45;;
37945;SDS011;23769;52.478;13.448;2022-09-09T13:56:29;3.35;;;1.50;;
37945;SDS011;23769;52.478;13.448;2022-09-09T13:58:56;4.63;;;1.60;;
37945;SDS011;23769;52.478;13.448;2022-09-09T14:01:23;3.58;;;1.83;;
37945;SDS011;23769;52.478;13.448;2022-09-09T14:03:52;3.70;;;1.73;;
37945;SDS011;23769;52.478;13.448;2022-09-09T14:06:20;5.18;;;1.67;;
37945;SDS011;23769;52.478;13.448;2022-09-09T14:08:48;2.47;;;1.50;;
37945;SDS011;23769;52.478;13.448;2022-09-09T14:11:16;6.07;;;1.55;;
37945;SDS011;23769;52.478;13.448;2022-09-09T14:13:44;3.80;;;1.50;;
37945;SDS011;23769;52.478;13.448;2022-09-09T14:16:11;5.53;;;3.00;;
37945;SDS011;23769;52.478;13.448;2022-09-09T14:18:38;3.58;;;1.90;;
37945;SDS011;23769;52.478;13.448;2022-09-09T14:21:06;7.35;;;2.95;;
37945;SDS011;23769;52.478;13.448;2022-09-09T14:23:35;4.82;;;2.05;;
37945;SDS011;23769;52.478;13.448;2022-09-09T14:26:03;3.05;;;1.50;;
37945;SDS011;23769;52.478;13.448;2022-09-09T14:28:30;4.20;;;2.17;;
37945;SDS011;23769;52.478;13.448;2022-09-09T14:30:58;5.38;;;2.30;;
37945;SDS011;23769;52.478;13.448;2022-09-09T14:33:26;8.05;;;3.42;;
37945;SDS011;23769;52.478;13.448;2022-09-09T14:35:55;7.53;;;3.80;;
37945;SDS011;23769;52.478;13.448;2022-09-09T14:38:22;4.90;;;2.58;;
37945;SDS011;23769;52.478;13.448;2022-09-09T14:40:51;6.13;;;4.00;;
37945;SDS011;23769;52.478;13.448;2022-09-09T14:43:18;4.03;;;2.45;;
37945;SDS011;23769;52.478;13.448;2022-09-09T14:45:45;5.95;;;2.15;;
37945;SDS011;23769;52.478;13.448;2022-09-09T14:48:13;2.25;;;0.90;;
37945;SDS011;23769;52.478;13.448;2022-09-09T14:50:40;2.58;;;1.10;;